Impacts TAF Board INFO
FOR SITUATIONAL AWARENESS. NOT TO BE USED FOR FLIGHT PLANNING PURPOSES.
IDs:

KCLE - Cleveland/Hopkins In, OH, US

Issued at 1136 UTC 20 Jan 2018
Updated at 1251 UTC 20 Jan 2018
Potential Impact None Slight Moderate High
Time<<21/01Z 21/02Z 21/03Z 21/04Z 21/05Z 21/06Z 21/07Z 21/08Z 21/09Z 21/10Z 21/11Z 21/12Z 21/13Z>>
Type PRVL PRVL PRVL PRVL PRVL PRVL PRVL PRVL PRVL PRVL PRVL PRVL PRVL
VIS >6 >6 >6 >6 >6 >6 >6 >6 5 5 5 5 5
CIG 20 20 15 15 15 15 15 15 8 8 8 8 8
Cover OVC OVC OVC OVC OVC OVC OVC OVC OVC OVC OVC OVC OVC
FltCat MVFR MVFR MVFR MVFR MVFR MVFR MVFR MVFR IFR IFR IFR IFR IFR
WX -- -- -- -- -- -- -- -- -DZ BR -DZ BR -DZ BR -DZ BR -DZ BR
WDir 220 220 200 200 200 200 200 200 200 200 200 200 200
WSpd 10 10 8 8 8 8 8 8 6 6 6 6 6
WGst -- -- -- -- -- -- -- -- -- -- -- -- --

Raw TAF
KCLE 201136Z 2012/2118 20014G20KT P6SM BKN250
  FM201500 21012KT P6SM BKN250
  FM202200 22010KT P6SM OVC020
  FM210300 20008KT P6SM OVC015
  FM210900 20006KT 5SM -DZ BR OVC008


METAR Board
Radar Display
Forecast Discussion

FOR SITUATIONAL AWARENESS. NOT TO BE USED FOR FLIGHT PLANNING PURPOSES.